Time;durP1;ratioP1;P1;durP2;ratioP2;P2;SDS_P1;SDS_P2;PMS_P1;PMS_P2;Temp;Humidity;BMP_temperature;BMP_pressure;BME280_temperature;BME280_humidity;BME280_pressure;Samples;Min_cycle;Max_cycle;Signal;HPM_P1;HPM_P2
2021/08/13 00:00:38;;;;;;;10.45;6.80;;;;;;;16.06;100.00;98228.38;5052707;28;20453;-78
2021/08/13 00:03:04;;;;;;;11.13;6.80;;;;;;;16.07;100.00;98236.25;5053104;28;20091;-78
2021/08/13 00:05:31;;;;;;;11.38;7.60;;;;;;;16.10;100.00;98237.50;5051215;28;20045;-78
2021/08/13 00:07:58;;;;;;;13.20;8.23;;;;;;;16.10;100.00;98237.50;5053055;28;20052;-78
2021/08/13 00:10:24;;;;;;;14.05;8.07;;;;;;;16.08;100.00;98234.28;5053583;28;20048;-78
2021/08/13 00:12:51;;;;;;;15.85;7.47;;;;;;;16.11;100.00;98233.63;5050312;28;20453;-78
2021/08/13 00:15:18;;;;;;;10.40;7.22;;;;;;;16.08;100.00;98237.81;5050142;28;20560;-77
2021/08/13 00:17:45;;;;;;;15.52;8.25;;;;;;;16.10;100.00;98241.00;5052065;28;20037;-78
2021/08/13 00:20:12;;;;;;;10.32;7.45;;;;;;;16.06;100.00;98240.09;5071482;28;20238;-77
2021/08/13 00:22:38;;;;;;;12.10;8.32;;;;;;;16.01;100.00;98231.31;5057330;28;20098;-77
2021/08/13 00:25:05;;;;;;;11.07;7.93;;;;;;;16.05;100.00;98237.72;5057958;28;20048;-78
2021/08/13 00:27:32;;;;;;;12.70;7.53;;;;;;;16.01;100.00;98234.03;5055901;28;20037;-78
2021/08/13 00:29:58;;;;;;;11.55;7.88;;;;;;;15.94;100.00;98220.94;5055668;28;20048;-77
2021/08/13 00:32:25;;;;;;;11.45;7.78;;;;;;;15.94;100.00;98236.53;5056093;28;20052;-77
2021/08/13 00:34:51;;;;;;;12.55;7.85;;;;;;;15.87;100.00;98231.59;5056633;28;20041;-78
2021/08/13 00:37:18;;;;;;;12.85;7.60;;;;;;;15.78;100.00;98224.59;5056380;28;20041;-78
2021/08/13 00:39:45;;;;;;;14.10;8.32;;;;;;;15.73;100.00;98222.88;5055910;28;20791;-77
2021/08/13 00:42:11;;;;;;;13.18;8.50;;;;;;;15.76;100.00;98226.88;5056462;28;20065;-78
2021/08/13 00:44:38;;;;;;;16.88;9.00;;;;;;;15.67;100.00;98246.03;5055913;28;20055;-77
2021/08/13 00:47:04;;;;;;;16.77;9.15;;;;;;;15.59;100.00;98238.72;5055212;28;20510;-78
2021/08/13 00:49:31;;;;;;;14.90;8.98;;;;;;;15.53;100.00;98235.41;5056609;28;20521;-78
2021/08/13 00:51:58;;;;;;;14.15;8.48;;;;;;;15.50;100.00;98230.63;5055849;28;20045;-78
2021/08/13 00:54:25;;;;;;;13.05;8.57;;;;;;;15.41;100.00;98240.75;5056239;28;20036;-78
2021/08/13 00:56:52;;;;;;;16.25;9.30;;;;;;;15.35;100.00;98228.44;5055258;28;20453;-78
2021/08/13 00:59:19;;;;;;;13.52;9.10;;;;;;;15.29;100.00;98234.41;5054673;28;20045;-78
2021/08/13 01:01:45;;;;;;;12.52;8.48;;;;;;;15.25;100.00;98237.00;5056186;28;20044;-77
2021/08/13 01:04:12;;;;;;;15.43;9.07;;;;;;;15.21;100.00;98240.72;5054300;28;20136;-78
2021/08/13 01:06:39;;;;;;;13.85;8.85;;;;;;;15.14;100.00;98243.97;5055924;28;20037;-77
2021/08/13 01:09:06;;;;;;;15.25;8.25;;;;;;;15.10;100.00;98236.78;5055837;28;20041;-78
2021/08/13 01:11:42;;;;;;;12.48;9.02;;;;;;;15.15;100.00;98231.16;5055211;28;20076;-78
2021/08/13 01:14:27;;;;;;;;;;;;;;;14.99;100.00;98228.19;5054959;28;20112;-77
2021/08/13 01:16:55;;;;;;;14.00;9.63;;;;;;;14.89;100.00;98223.09;5055830;28;19920;-77
2021/08/13 01:19:59;;;;;;;17.45;10.27;;;;;;;14.84;100.00;98237.69;5054990;28;20495;-77
2021/08/13 01:22:32;;;;;;;17.73;10.70;;;;;;;14.77;100.00;98242.06;5054550;28;20045;-77
2021/08/13 01:25:03;;;;;;;19.23;10.68;;;;;;;14.68;100.00;98230.41;5054890;28;20041;-77
2021/08/13 01:27:38;;;;;;;16.10;9.18;;;;;;;14.65;100.00;98234.59;5054395;28;20048;-78
2021/08/13 01:30:14;;;;;;;20.77;9.63;;;;;;;14.59;100.00;98233.16;5054791;28;20071;-77
2021/08/13 01:32:48;;;;;;;13.80;9.63;;;;;;;14.52;100.00;98235.59;5057748;28;20055;-77
2021/08/13 01:35:20;;;;;;;16.73;10.38;;;;;;;14.47;100.00;98224.06;5074342;28;20039;-77
2021/08/13 01:37:51;;;;;;;14.25;10.07;;;;;;;14.40;100.00;98232.72;5075558;28;20063;-76
2021/08/13 01:40:19;;;;;;;19.42;11.70;;;;;;;14.38;100.00;98231.44;5073921;28;20041;-77
2021/08/13 01:42:47;;;;;;;17.23;11.40;;;;;;;14.43;100.00;98231.28;5063527;28;20041;-77
2021/08/13 01:45:20;;;;;;;18.65;11.32;;;;;;;14.37;100.00;98240.75;5054259;28;20506;-77
2021/08/13 01:47:49;;;;;;;17.83;10.68;;;;;;;14.39;100.00;98236.59;5053531;28;20314;-77
2021/08/13 01:50:17;;;;;;;15.13;10.68;;;;;;;14.37;100.00;98236.13;5053691;28;20045;-77
2021/08/13 01:52:45;;;;;;;15.10;10.13;;;;;;;14.29;100.00;98228.72;5052784;28;20514;-77
2021/08/13 01:55:14;;;;;;;16.35;10.10;;;;;;;14.27;100.00;98220.09;5052712;28;20127;-77
2021/08/13 01:57:40;;;;;;;14.13;10.32;;;;;;;14.24;100.00;98228.91;5054576;28;20059;-77
2021/08/13 02:00:08;;;;;;;13.57;10.02;;;;;;;14.13;100.00;98225.72;5054857;28;20068;-77
2021/08/13 02:02:36;;;;;;;14.93;10.48;;;;;;;14.09;100.00;98229.41;5054669;28;20049;-78
2021/08/13 02:05:04;;;;;;;21.15;11.52;;;;;;;14.07;100.00;98231.63;5055021;28;20041;-78
2021/08/13 02:07:35;;;;;;;16.85;10.48;;;;;;;14.04;100.00;98238.53;5054930;28;20097;-77
2021/08/13 02:10:05;;;;;;;20.40;12.25;;;;;;;14.02;100.00;98240.78;5053600;28;20048;-78
2021/08/13 02:12:32;;;;;;;25.00;10.93;;;;;;;14.04;100.00;98243.97;5053513;28;20056;-77
2021/08/13 02:14:59;;;;;;;17.35;10.95;;;;;;;13.95;100.00;98239.66;5070239;28;20075;-77
2021/08/13 02:17:29;;;;;;;20.08;10.95;;;;;;;13.91;100.00;98239.50;5054527;28;20041;-78
2021/08/13 02:20:08;;;;;;;15.70;10.15;;;;;;;13.98;100.00;98233.59;5053722;28;20056;-77
2021/08/13 02:22:34;;;;;;;15.10;10.35;;;;;;;14.01;100.00;98232.94;5056282;28;20037;-78
2021/08/13 02:25:03;;;;;;;17.10;10.02;;;;;;;14.03;100.00;98236.13;5056933;28;20041;-78
2021/08/13 02:27:31;;;;;;;14.77;9.90;;;;;;;13.87;100.00;98237.75;5047256;28;20045;-77
2021/08/13 02:29:58;;;;;;;17.45;11.30;;;;;;;13.87;100.00;98237.75;5054253;28;20076;-77
2021/08/13 02:32:26;;;;;;;18.42;10.10;;;;;;;13.89;100.00;98232.78;5054502;28;20049;-77
2021/08/13 02:34:53;;;;;;;15.48;10.85;;;;;;;13.95;100.00;98245.13;5054741;28;20045;-77
2021/08/13 02:37:26;;;;;;;14.57;10.57;;;;;;;14.02;100.00;98239.97;5054224;28;20037;-78
2021/08/13 02:39:56;;;;;;;13.68;9.85;;;;;;;14.03;100.00;98239.66;5054049;28;20044;-78
2021/08/13 02:42:38;;;;;;;15.65;10.40;;;;;;;14.13;100.00;98231.16;5051619;28;20076;-77
2021/08/13 02:45:06;;;;;;;14.25;10.35;;;;;;;14.12;100.00;98237.72;5053281;28;20112;-78
2021/08/13 02:47:32;;;;;;;16.02;10.48;;;;;;;14.15;100.00;98241.72;5051826;28;20044;-78
2021/08/13 02:50:09;;;;;;;16.30;10.50;;;;;;;14.12;100.00;98245.09;5053647;28;20556;-76
2021/08/13 02:52:44;;;;;;;17.40;10.80;;;;;;;14.11;100.00;98238.06;5037658;28;20045;-77
2021/08/13 02:55:16;;;;;;;19.27;11.48;;;;;;;14.10;100.00;98242.69;5033303;28;20496;-78
2021/08/13 02:57:47;;;;;;;17.02;10.93;;;;;;;14.07;100.00;98234.34;5033361;28;20084;-77
2021/08/13 03:00:13;;;;;;;16.85;10.50;;;;;;;14.09;100.00;98240.31;5042849;28;20051;-77
2021/08/13 03:02:41;;;;;;;21.75;11.30;;;;;;;14.11;100.00;98246.22;5044086;28;20117;-77
2021/08/13 03:05:21;;;;;;;19.40;11.35;;;;;;;14.07;100.00;98246.06;5044742;28;20041;-78
2021/08/13 03:07:51;;;;;;;17.98;10.90;;;;;;;14.08;100.00;98246.88;5045081;28;20046;-77
2021/08/13 03:10:18;;;;;;;19.17;11.95;;;;;;;14.10;100.00;98248.13;5044644;28;20045;-77
2021/08/13 03:12:49;;;;;;;20.88;11.40;;;;;;;14.11;100.00;98240.78;5043904;28;20033;-77
2021/08/13 03:15:17;;;;;;;19.17;11.48;;;;;;;14.07;100.00;98246.06;5055477;28;20515;-77
2021/08/13 03:17:44;;;;;;;18.90;11.57;;;;;;;14.04;100.00;98254.09;5034403;28;20459;-78
2021/08/13 03:20:12;;;;;;;16.55;10.95;;;;;;;14.00;100.00;98243.03;5034711;28;20055;-78
2021/08/13 03:22:38;;;;;;;17.75;11.95;;;;;;;13.95;100.00;98251.38;5033890;28;20053;-78
2021/08/13 03:25:06;;;;;;;20.13;12.13;;;;;;;13.94;100.00;98249.75;5034021;28;20123;-78
2021/08/13 03:27:33;;;;;;;19.42;11.80;;;;;;;13.93;100.00;98258.25;5034665;28;20375;-78
2021/08/13 03:30:00;;;;;;;18.88;12.23;;;;;;;13.89;100.00;98254.56;5033441;28;20049;-78
2021/08/13 03:32:27;;;;;;;17.30;12.13;;;;;;;13.88;100.00;98253.78;5031881;28;20041;-77
2021/08/13 03:34:53;;;;;;;21.42;12.55;;;;;;;13.90;100.00;98248.00;5031252;28;20220;-77
2021/08/13 03:37:20;;;;;;;20.63;12.50;;;;;;;13.94;100.00;98247.03;5033135;28;20482;-78
2021/08/13 03:39:47;;;;;;;17.75;12.30;;;;;;;13.99;100.00;98240.66;5033779;28;20117;-76
2021/08/13 03:42:15;;;;;;;14.65;10.80;;;;;;;14.04;100.00;98246.69;5033839;28;20127;-78
2021/08/13 03:44:42;;;;;;;17.50;10.52;;;;;;;14.07;100.00;98248.78;5034651;28;20056;-78
2021/08/13 03:47:09;;;;;;;14.10;9.80;;;;;;;14.00;100.00;98244.94;5032486;28;20503;-77
2021/08/13 03:52:13;;;;;;;13.50;9.18;;;;;;;14.02;100.00;98245.41;4931040;29;20327;-82
2021/08/13 03:54:39;;;;;;;16.83;9.70;;;;;;;14.00;100.00;98240.31;4919788;29;20219;-80
2021/08/13 03:57:06;;;;;;;14.82;9.70;;;;;;;13.97;100.00;98232.78;4952746;29;20102;-83
2021/08/13 03:59:32;;;;;;;22.52;10.43;;;;;;;14.02;100.00;98234.53;4952475;28;20062;-82
2021/08/13 04:01:59;;;;;;;15.00;9.65;;;;;;;14.00;100.00;98234.88;4918594;29;20055;-82
2021/08/13 04:04:28;;;;;;;13.40;9.43;;;;;;;13.92;100.00;98234.88;4919688;29;20061;-82
2021/08/13 04:06:54;;;;;;;15.18;10.00;;;;;;;13.89;100.00;98244.47;4952443;28;20059;-82
2021/08/13 04:09:21;;;;;;;15.32;10.20;;;;;;;13.91;100.00;98239.50;4952752;29;20054;-81
2021/08/13 04:11:47;;;;;;;18.48;10.00;;;;;;;13.89;100.00;98247.19;4952415;28;20489;-82
2021/08/13 04:14:14;;;;;;;16.27;10.40;;;;;;;13.84;100.00;98249.28;4953211;29;20039;-79
2021/08/13 04:16:41;;;;;;;16.17;10.27;;;;;;;13.79;100.00;98236.63;4954066;28;20134;-79
2021/08/13 04:19:09;;;;;;;15.60;10.57;;;;;;;13.60;100.00;98223.34;4955567;28;20094;-79
2021/08/13 04:21:37;;;;;;;17.83;10.68;;;;;;;13.72;100.00;98255.38;4935389;29;20086;-79
2021/08/13 04:24:04;;;;;;;13.80;9.48;;;;;;;13.62;100.00;98259.22;4954126;29;20102;-78
2021/08/13 04:26:33;;;;;;;15.30;10.85;;;;;;;13.65;100.00;98257.78;4954944;28;20507;-78
2021/08/13 04:29:00;;;;;;;21.77;11.07;;;;;;;13.66;100.00;98251.19;4955832;28;20054;-79
2021/08/13 04:31:27;;;;;;;17.30;10.50;;;;;;;13.69;100.00;98245.94;4936878;29;20055;-78
2021/08/13 04:33:53;;;;;;;16.75;11.10;;;;;;;13.81;100.00;98252.66;4951972;28;20047;-79
2021/08/13 04:36:23;;;;;;;16.23;10.93;;;;;;;13.86;100.00;98257.94;4951387;28;20047;-79
2021/08/13 04:38:49;;;;;;;15.80;10.07;;;;;;;13.77;100.00;98243.53;4951999;28;20710;-79
2021/08/13 04:41:16;;;;;;;15.77;10.52;;;;;;;13.81;100.00;98247.22;4951494;29;20062;-79
2021/08/13 04:43:42;;;;;;;13.57;9.88;;;;;;;13.83;100.00;98247.69;4934430;29;20086;-80
2021/08/13 04:46:09;;;;;;;16.77;10.02;;;;;;;13.80;100.00;98251.84;4949973;29;20051;-79
2021/08/13 04:48:35;;;;;;;13.57;9.98;;;;;;;13.83;100.00;98253.94;4936701;28;20044;-79
2021/08/13 04:51:03;;;;;;;12.35;9.23;;;;;;;13.89;100.00;98258.09;4966419;28;20039;-82
2021/08/13 04:53:29;;;;;;;12.70;9.30;;;;;;;13.84;100.00;98243.84;4919621;29;20066;-84
2021/08/13 04:55:56;;;;;;;13.68;9.05;;;;;;;13.89;100.00;98247.19;4951801;28;20058;-82
2021/08/13 04:58:23;;;;;;;12.25;8.60;;;;;;;13.94;100.00;98248.94;4950249;29;20588;-80
2021/08/13 05:00:52;;;;;;;16.45;9.38;;;;;;;13.88;100.00;98251.06;4954301;28;20058;-83
2021/08/13 05:03:18;;;;;;;13.57;9.07;;;;;;;13.93;100.00;98250.91;4935493;29;20079;-80
2021/08/13 05:05:45;;;;;;;15.93;8.80;;;;;;;13.98;100.00;98242.56;4955271;28;20046;-79
2021/08/13 05:08:12;;;;;;;13.55;10.20;;;;;;;14.10;100.00;98252.78;4949507;29;20063;-83
2021/08/13 05:10:39;;;;;;;16.83;11.38;;;;;;;14.15;100.00;98247.97;4947800;29;20050;-80
2021/08/13 05:13:06;;;;;;;19.48;11.38;;;;;;;14.29;100.00;98256.78;4941178;29;20059;-84
2021/08/13 05:15:32;;;;;;;18.92;11.45;;;;;;;14.46;100.00;98264.13;4936322;29;20043;-83
2021/08/13 05:17:59;;;;;;;27.30;12.50;;;;;;;14.62;100.00;98254.31;4952378;28;20113;-83
2021/08/13 05:20:26;;;;;;;20.58;12.18;;;;;;;14.91;100.00;98261.72;4954435;28;20512;-83
2021/08/13 05:22:52;;;;;;;20.00;12.43;;;;;;;15.07;100.00;98265.50;4954443;29;20087;-82
2021/08/13 05:25:21;;;;;;;16.73;11.27;;;;;;;15.28;100.00;98266.34;4980721;23;20076;-82
2021/08/13 05:27:48;;;;;;;17.45;11.50;;;;;;;15.42;100.00;98263.38;5046362;28;20049;-81
2021/08/13 05:30:16;;;;;;;21.85;11.75;;;;;;;15.54;100.00;98260.75;5043295;28;20057;-82
2021/08/13 05:32:47;;;;;;;21.60;11.80;;;;;;;15.72;100.00;98264.19;5026612;28;20045;-82
2021/08/13 05:35:14;;;;;;;19.20;11.43;;;;;;;15.83;100.00;98266.16;5026502;28;20055;-81
2021/08/13 05:37:40;;;;;;;22.23;10.90;;;;;;;15.99;100.00;98258.97;5027110;28;20073;-80
2021/08/13 05:40:08;;;;;;;21.10;10.93;;;;;;;16.17;100.00;98257.69;5025189;28;20045;-81
2021/08/13 05:42:41;;;;;;;16.80;9.85;;;;;;;16.31;100.00;98253.84;5024814;28;20046;-82
2021/08/13 05:45:08;;;;;;;19.25;10.45;;;;;;;16.42;100.00;98258.53;5020173;28;20041;-79
2021/08/13 05:47:38;;;;;;;23.50;10.88;;;;;;;16.58;100.00;98259.53;5025816;28;20045;-79
2021/08/13 05:50:10;;;;;;;16.50;9.75;;;;;;;16.73;100.00;98263.53;5045416;28;20061;-81
2021/08/13 05:52:37;;;;;;;19.23;10.27;;;;;;;16.92;100.00;98258.34;5034537;28;20049;-81
2021/08/13 05:55:05;;;;;;;20.55;10.45;;;;;;;17.13;100.00;98259.03;5031386;28;20115;-79
2021/08/13 05:57:34;;;;;;;19.33;10.00;;;;;;;17.29;100.00;98262.66;5020002;28;20107;-82
2021/08/13 06:00:01;;;;;;;25.33;10.15;;;;;;;17.47;100.00;98271.44;5036299;28;20481;-82
2021/08/13 06:02:27;;;;;;;16.60;9.27;;;;;;;17.59;100.00;98273.38;5031821;28;20667;-81
2021/08/13 06:04:57;;;;;;;15.77;9.00;;;;;;;17.71;100.00;98260.47;5016926;28;20191;-81
2021/08/13 06:07:24;;;;;;;21.13;9.30;;;;;;;17.82;100.00;98266.25;5035682;28;20170;-78
2021/08/13 06:09:51;;;;;;;27.05;8.57;;;;;;;17.93;100.00;98261.91;5044104;28;20037;-81
2021/08/13 06:12:19;;;;;;;15.27;8.77;;;;;;;18.05;100.00;98259.09;5049463;28;20041;-80
2021/08/13 06:14:45;;;;;;;19.50;8.68;;;;;;;18.21;100.00;98261.91;5043340;28;20049;-79
2021/08/13 06:17:12;;;;;;;14.02;8.95;;;;;;;18.34;100.00;98269.72;5032157;28;20525;-79
2021/08/13 06:19:41;;;;;;;18.85;8.68;;;;;;;18.52;100.00;98271.03;5032192;28;20142;-78
2021/08/13 06:22:07;;;;;;;13.85;8.40;;;;;;;18.68;100.00;98263.63;5032064;28;20049;-79
2021/08/13 06:24:36;;;;;;;18.33;8.75;;;;;;;18.82;100.00;98252.22;5035828;28;20041;-80
2021/08/13 06:27:03;;;;;;;18.88;8.18;;;;;;;18.96;100.00;98249.03;5021539;28;20070;-79
2021/08/13 06:29:30;;;;;;;12.63;7.85;;;;;;;19.18;100.00;98256.63;5010814;28;20049;-80
2021/08/13 06:32:00;;;;;;;15.32;8.35;;;;;;;19.26;100.00;98242.72;5011060;28;20073;-79
2021/08/13 06:34:27;;;;;;;12.95;7.72;;;;;;;19.46;100.00;98251.06;5010730;28;20080;-79
2021/08/13 06:36:55;;;;;;;15.05;8.13;;;;;;;19.62;100.00;98247.09;5010980;28;20426;-79
2021/08/13 06:39:22;;;;;;;13.23;7.95;;;;;;;19.78;100.00;98252.56;5029402;28;20044;-79
2021/08/13 06:42:05;;;;;;;17.63;7.32;;;;;;;19.96;100.00;98250.16;5030081;28;20558;-79
2021/08/13 06:44:32;;;;;;;14.35;7.35;;;;;;;20.13;100.00;98258.00;5032576;28;20049;-79
2021/08/13 06:46:58;;;;;;;11.60;7.03;;;;;;;20.26;100.00;98249.25;5031308;28;20050;-80
2021/08/13 06:49:25;;;;;;;13.88;7.07;;;;;;;20.43;100.00;98240.56;5034690;28;20037;-80
2021/08/13 06:51:51;;;;;;;14.85;7.40;;;;;;;20.62;100.00;98242.47;5050648;28;20052;-81
2021/08/13 06:54:18;;;;;;;12.15;6.82;;;;;;;20.78;100.00;98243.16;5033469;28;20041;-81
2021/08/13 06:56:44;;;;;;;12.15;6.72;;;;;;;20.89;100.00;98233.13;5039459;28;20609;-79
2021/08/13 06:59:11;;;;;;;14.07;6.53;;;;;;;21.06;100.00;98242.84;5034755;28;20400;-80
2021/08/13 07:01:37;;;;;;;10.48;6.28;;;;;;;21.18;100.00;98242.69;5032533;28;20053;-79
2021/08/13 07:04:05;;;;;;;13.23;6.97;;;;;;;21.38;100.00;98248.88;5034897;28;20049;-80
2021/08/13 07:06:32;;;;;;;17.70;6.57;;;;;;;21.47;100.00;98244.69;5047646;28;20558;-81
2021/08/13 07:09:00;;;;;;;13.40;6.30;;;;;;;21.63;100.00;98244.53;5036888;28;20060;-80
2021/08/13 07:11:26;;;;;;;12.00;6.53;;;;;;;21.77;100.00;98238.41;5038905;28;20049;-80
2021/08/13 07:14:00;;;;;;;13.35;6.78;;;;;;;21.95;100.00;98245.78;5023942;28;20042;-81
2021/08/13 07:16:27;;;;;;;13.55;6.45;;;;;;;22.12;100.00;98245.22;5018319;28;20042;-80
2021/08/13 07:18:53;;;;;;;12.20;5.93;;;;;;;22.46;100.00;98253.47;5023763;28;20434;-81
2021/08/13 07:21:20;;;;;;;11.40;5.55;;;;;;;22.68;100.00;98250.59;5023348;28;20046;-79
2021/08/13 07:23:46;;;;;;;10.68;5.53;;;;;;;22.86;100.00;98250.78;5042902;28;20065;-81
2021/08/13 07:26:13;;;;;;;14.30;5.70;;;;;;;23.00;100.00;98242.59;5044583;28;20045;-81
2021/08/13 07:28:39;;;;;;;12.90;6.07;;;;;;;23.19;100.00;98245.13;5062037;28;20041;-80
2021/08/13 07:31:06;;;;;;;10.30;6.07;;;;;;;23.21;100.00;98245.53;5061508;28;20046;-81
2021/08/13 07:33:33;;;;;;;13.00;5.57;;;;;;;23.42;100.00;98254.03;5046700;28;20113;-80
2021/08/13 07:35:59;;;;;;;10.20;5.80;;;;;;;23.56;100.00;98254.09;5046023;28;20045;-79
2021/08/13 07:38:26;;;;;;;9.70;5.68;;;;;;;23.64;100.00;98259.72;5045659;28;20060;-81
2021/08/13 07:40:52;;;;;;;12.20;6.00;;;;;;;23.68;100.00;98257.75;5039348;28;20041;-81
2021/08/13 07:43:20;;;;;;;10.27;5.97;;;;;;;23.82;100.00;98253.06;5042142;28;20084;-80
2021/08/13 07:45:46;;;;;;;9.50;5.55;;;;;;;23.88;100.00;98248.78;5026818;28;20046;-79
2021/08/13 07:48:13;;;;;;;12.18;5.60;;;;;;;23.85;100.00;98245.97;5024627;28;20499;-80
2021/08/13 07:50:41;;;;;;;7.88;4.97;;;;;;;24.02;100.00;98254.38;5024645;28;20052;-80
2021/08/13 07:53:08;;;;;;;12.25;5.70;;;;;;;24.12;100.00;98253.66;5023285;28;20074;-79
2021/08/13 07:55:35;;;;;;;10.40;5.60;;;;;;;24.09;100.00;98257.22;5018480;28;20046;-79
2021/08/13 07:58:01;;;;;;;7.97;5.43;;;;;;;24.11;100.00;98254.03;5018221;28;20049;-80
2021/08/13 08:00:28;;;;;;;12.57;5.50;;;;;;;24.23;100.00;98256.47;5024811;28;20054;-81
2021/08/13 08:02:55;;;;;;;10.82;5.43;;;;;;;24.41;100.00;98254.56;5024848;28;20049;-81
2021/08/13 08:05:24;;;;;;;10.68;5.40;;;;;;;24.42;100.00;98256.13;5025238;28;20037;-80
2021/08/13 08:07:51;;;;;;;11.18;5.78;;;;;;;24.53;100.00;98261.72;5024745;28;20053;-80
2021/08/13 08:10:18;;;;;;;8.15;4.82;;;;;;;24.58;100.00;98253.81;5026413;28;20053;-80
2021/08/13 08:12:44;;;;;;;13.13;5.97;;;;;;;24.69;100.00;98254.66;5025399;28;20050;-81
2021/08/13 08:15:12;;;;;;;10.07;5.85;;;;;;;24.75;100.00;98255.81;5026257;28;20046;-81
2021/08/13 08:17:39;;;;;;;8.90;5.15;;;;;;;24.67;100.00;98254.22;5037437;28;20053;-81
2021/08/13 08:20:07;;;;;;;7.55;5.18;;;;;;;24.94;100.00;98259.44;5044251;28;20045;-81
2021/08/13 08:22:34;;;;;;;8.73;5.80;;;;;;;24.91;100.00;98263.00;5045697;28;20050;-81
2021/08/13 08:25:01;;;;;;;9.57;5.72;;;;;;;24.99;100.00;98261.81;5045898;28;20049;-80
2021/08/13 08:27:28;;;;;;;10.88;5.45;;;;;;;24.97;100.00;98259.44;5045781;28;20104;-80
2021/08/13 08:29:54;;;;;;;11.95;4.88;;;;;;;25.16;100.00;98263.81;5043863;28;20037;-80
2021/08/13 08:32:21;;;;;;;12.73;5.65;;;;;;;25.23;100.00;98267.38;5045781;28;20053;-81
2021/08/13 08:34:48;;;;;;;8.70;5.53;;;;;;;25.39;100.00;98261.44;5053955;28;20053;-81
2021/08/13 08:37:14;;;;;;;7.20;5.30;;;;;;;25.53;100.00;98263.41;5053510;28;20041;-81
2021/08/13 08:39:42;;;;;;;11.90;5.40;;;;;;;25.59;100.00;98261.84;5055558;28;20633;-80
2021/08/13 08:42:14;;;;;;;11.00;5.43;;;;;;;25.66;100.00;98259.84;5057681;28;20036;-81
2021/08/13 08:44:41;;;;;;;10.13;6.05;;;;;;;25.71;100.00;98261.41;5056312;28;20037;-80
2021/08/13 08:47:09;;;;;;;11.65;6.00;;;;;;;25.81;100.00;98255.84;5064337;28;20499;-80
2021/08/13 08:49:41;;;;;;;15.85;5.78;;;;;;;25.87;100.00;98268.13;5033906;28;20052;-79
2021/08/13 08:52:08;;;;;;;11.57;6.10;;;;;;;25.95;100.00;98255.81;5048551;28;20059;-80
2021/08/13 08:54:37;;;;;;;11.20;5.65;;;;;;;25.93;100.00;98258.22;5049714;28;20068;-81
2021/08/13 08:57:05;;;;;;;12.60;6.20;;;;;;;26.14;100.00;98257.38;5050395;28;20109;-80
2021/08/13 08:59:40;;;;;;;;;;;;;;;26.09;100.00;98260.53;5049146;28;20048;-79
2021/08/13 09:02:06;;;;;;;15.70;5.63;;;;;;;26.11;100.00;98265.66;5051172;28;19932;-80
2021/08/13 09:04:35;;;;;;;13.95;5.68;;;;;;;26.13;100.00;98277.97;5051148;28;20052;-80
2021/08/13 09:07:02;;;;;;;10.73;5.32;;;;;;;26.28;100.00;98270.38;5051920;28;20050;-80
2021/08/13 09:09:29;;;;;;;14.00;6.50;;;;;;;26.30;100.00;98274.34;5055830;28;20140;-81
2021/08/13 09:11:57;;;;;;;14.68;5.80;;;;;;;26.59;100.00;98270.25;5056727;28;20041;-80
2021/08/13 09:14:36;;;;;;;13.07;6.32;;;;;;;26.53;100.00;98266.28;5066541;28;20137;-80
2021/08/13 09:17:05;;;;;;;8.27;5.72;;;;;;;26.58;100.00;98267.88;5049789;28;20045;-80
2021/08/13 09:19:47;;;;;;;10.60;5.63;;;;;;;26.97;100.00;98267.66;5045297;28;20052;-80
2021/08/13 09:22:20;;;;;;;11.48;6.10;;;;;;;26.96;100.00;98261.31;5027203;28;20045;-80
2021/08/13 09:24:52;;;;;;;11.48;6.20;;;;;;;26.80;100.00;98261.00;5047638;28;20568;-80
2021/08/13 09:27:23;;;;;;;9.60;6.00;;;;;;;27.16;100.00;98261.56;5048412;28;20060;-80
2021/08/13 09:30:07;;;;;;;12.70;6.25;;;;;;;27.10;100.00;98269.53;5050457;28;20049;-80
2021/08/13 09:32:34;;;;;;;13.65;6.72;;;;;;;27.14;100.00;98275.06;5048503;28;20084;-80
2021/08/13 09:35:04;;;;;;;15.95;6.53;;;;;;;27.31;100.00;98274.13;5047321;28;20049;-81
2021/08/13 09:37:33;;;;;;;10.63;6.47;;;;;;;27.72;100.00;98271.41;5049228;28;20045;-80
2021/08/13 09:40:00;;;;;;;13.25;6.72;;;;;;;28.14;86.43;98275.75;5046955;28;20050;-80
2021/08/13 09:42:37;;;;;;;12.10;6.68;;;;;;;28.04;90.17;98268.31;5050516;28;20052;-80
2021/08/13 09:45:09;;;;;;;11.80;6.47;;;;;;;28.20;89.57;98272.09;5049717;28;20041;-81
2021/08/13 09:47:45;;;;;;;12.40;6.55;;;;;;;28.32;88.47;98254.03;5046811;28;20057;-80
2021/08/13 09:50:15;;;;;;;11.88;7.38;;;;;;;28.60;71.83;98250.88;5044610;28;20040;-80
2021/08/13 09:53:02;;;;;;;9.77;6.35;;;;;;;28.71;78.08;98247.97;5056631;23;20053;-79
2021/08/13 09:55:29;;;;;;;10.25;7.97;;;;;;;29.27;64.63;98247.13;5023790;28;20048;-79
2021/08/13 09:57:55;;;;;;;11.40;7.15;;;;;;;29.28;62.25;98237.53;5043009;28;20115;-79
2021/08/13 10:01:05;;;;;;;10.93;7.72;;;;;;;29.55;58.16;98254.22;5054287;28;20040;-78
2021/08/13 10:04:18;;;;;;;17.25;7.57;;;;;;;30.14;57.85;98257.91;5035589;28;20056;-79
2021/08/13 10:06:48;;;;;;;13.20;8.15;;;;;;;29.86;60.12;98255.66;5022096;28;20049;-79
2021/08/13 10:09:27;;;;;;;15.63;7.10;;;;;;;31.19;53.73;98251.22;5019060;28;20045;-78
2021/08/13 10:11:59;;;;;;;11.65;7.40;;;;;;;31.98;53.16;98254.34;5036460;28;20053;-80
2021/08/13 10:14:32;;;;;;;9.68;6.47;;;;;;;32.57;46.10;98253.91;5038200;28;20044;-79
2021/08/13 10:17:10;;;;;;;10.70;8.48;;;;;;;31.76;41.23;98250.56;5001682;28;20041;-81
2021/08/13 10:19:42;;;;;;;12.98;9.00;;;;;;;31.71;40.70;98248.31;5034028;28;20302;-80
2021/08/13 10:22:10;;;;;;;13.15;8.15;;;;;;;32.33;44.28;98260.22;5022712;28;20049;-80
2021/08/13 10:24:38;;;;;;;14.20;8.10;;;;;;;31.23;47.78;98251.16;5034732;28;20136;-81
2021/08/13 10:27:06;;;;;;;11.77;7.97;;;;;;;32.20;47.40;98251.78;5050249;28;20045;-80
2021/08/13 10:29:33;;;;;;;11.57;8.27;;;;;;;32.50;43.35;98262.50;5027301;28;20052;-81
2021/08/13 10:32:00;;;;;;;14.00;8.00;;;;;;;32.66;44.36;98261.66;5018951;28;20266;-81
2021/08/13 10:34:27;;;;;;;12.13;8.38;;;;;;;32.99;41.72;98253.81;5037077;28;20068;-81
2021/08/13 10:36:55;;;;;;;17.85;8.73;;;;;;;34.06;40.86;98249.03;5063941;28;20052;-81
2021/08/13 10:39:26;;;;;;;13.23;9.02;;;;;;;35.41;35.53;98240.50;5055795;28;20045;-80
2021/08/13 10:42:01;;;;;;;13.98;10.60;;;;;;;34.04;34.40;98237.44;5055465;28;20049;-80
2021/08/13 10:44:36;;;;;;;18.98;11.55;;;;;;;33.32;35.04;98238.31;5056122;28;20124;-80
2021/08/13 10:47:10;;;;;;;18.05;11.30;;;;;;;33.75;36.95;98229.25;5021796;28;20053;-79
2021/08/13 10:49:39;;;;;;;12.52;10.48;;;;;;;33.84;36.03;98232.13;5034033;28;20057;-80
2021/08/13 10:52:07;;;;;;;15.45;10.73;;;;;;;34.19;35.90;98233.69;5032432;28;20244;-80
2021/08/13 10:54:41;;;;;;;14.23;9.45;;;;;;;34.15;36.21;98241.44;5035769;28;20041;-80
2021/08/13 10:57:09;;;;;;;13.43;9.35;;;;;;;34.41;37.61;98242.09;5041011;28;20041;-77
2021/08/13 10:59:39;;;;;;;13.30;8.93;;;;;;;34.45;37.46;98248.38;5042918;28;20033;-80
2021/08/13 11:02:16;;;;;;;15.50;8.95;;;;;;;34.73;36.50;98247.31;5045512;28;20056;-80
2021/08/13 11:04:47;;;;;;;11.10;8.88;;;;;;;34.46;36.90;98238.69;5052995;28;20399;-80
2021/08/13 11:07:14;;;;;;;18.13;9.00;;;;;;;33.34;38.80;98238.66;5037523;28;20099;-79
2021/08/13 11:09:41;;;;;;;13.95;9.43;;;;;;;33.02;39.09;98233.28;5037956;28;20029;-80
2021/08/13 11:12:12;;;;;;;14.48;9.48;;;;;;;32.66;41.32;98239.22;5056253;28;20045;-79
2021/08/13 11:14:52;;;;;;;13.13;9.75;;;;;;;33.93;38.90;98232.22;5055557;28;20069;-79
2021/08/13 11:17:31;;;;;;;17.45;9.13;;;;;;;35.32;38.13;98232.06;5055147;28;20041;-80
2021/08/13 11:19:59;;;;;;;16.25;9.35;;;;;;;36.46;34.04;98228.66;5056665;28;20029;-80
2021/08/13 11:22:29;;;;;;;11.05;8.65;;;;;;;36.08;35.05;98226.38;5039013;28;20040;-80
2021/08/13 11:24:55;;;;;;;12.13;8.18;;;;;;;35.46;33.66;98228.63;5038121;28;20047;-80
2021/08/13 11:27:24;;;;;;;13.30;8.48;;;;;;;35.19;36.64;98220.13;5038839;28;20418;-80